sensor_id;sensor_type;location;lat;lon;timestamp;temperature;humidity
13416;DHT22;6779;50.150;8.680;2022-10-20T00:01:13;10.70;73.00
13416;DHT22;6779;50.150;8.680;2022-10-20T00:03:39;10.60;54.30
13416;DHT22;6779;50.150;8.680;2022-10-20T00:06:24;10.70;99.50
13416;DHT22;6779;50.150;8.680;2022-10-20T00:08:51;10.60;79.00
13416;DHT22;6779;50.150;8.680;2022-10-20T00:11:18;10.60;95.80
13416;DHT22;6779;50.150;8.680;2022-10-20T00:13:46;10.60;91.10
13416;DHT22;6779;50.150;8.680;2022-10-20T00:16:12;10.60;78.00
13416;DHT22;6779;50.150;8.680;2022-10-20T00:18:38;10.60;69.70
13416;DHT22;6779;50.150;8.680;2022-10-20T00:21:05;10.50;58.90
13416;DHT22;6779;50.150;8.680;2022-10-20T00:23:31;10.50;80.70
13416;DHT22;6779;50.150;8.680;2022-10-20T00:26:05;10.60;56.10
13416;DHT22;6779;50.150;8.680;2022-10-20T00:28:31;10.50;61.70
13416;DHT22;6779;50.150;8.680;2022-10-20T00:30:57;10.50;48.20
13416;DHT22;6779;50.150;8.680;2022-10-20T00:33:23;10.50;42.60
13416;DHT22;6779;50.150;8.680;2022-10-20T00:35:49;10.40;28.70
13416;DHT22;6779;50.150;8.680;2022-10-20T00:38:15;10.50;77.50
13416;DHT22;6779;50.150;8.680;2022-10-20T00:40:40;10.40;51.80
13416;DHT22;6779;50.150;8.680;2022-10-20T00:43:12;10.50;30.90
13416;DHT22;6779;50.150;8.680;2022-10-20T00:45:38;10.40;1.00
13416;DHT22;6779;50.150;8.680;2022-10-20T00:48:11;10.30;1.00
13416;DHT22;6779;50.150;8.680;2022-10-20T00:50:40;10.30;1.00
13416;DHT22;6779;50.150;8.680;2022-10-20T00:53:06;10.30;1.00
13416;DHT22;6779;50.150;8.680;2022-10-20T00:55:35;10.30;45.20
13416;DHT22;6779;50.150;8.680;2022-10-20T00:58:02;10.30;19.70
13416;DHT22;6779;50.150;8.680;2022-10-20T01:00:29;10.20;11.00
13416;DHT22;6779;50.150;8.680;2022-10-20T01:02:58;10.20;46.90
13416;DHT22;6779;50.150;8.680;2022-10-20T01:05:26;10.20;60.50
13416;DHT22;6779;50.150;8.680;2022-10-20T01:07:51;10.20;18.00
13416;DHT22;6779;50.150;8.680;2022-10-20T01:10:17;10.10;4.00
13416;DHT22;6779;50.150;8.680;2022-10-20T01:12:53;10.00;4.80
13416;DHT22;6779;50.150;8.680;2022-10-20T01:15:39;10.10;20.00
13416;DHT22;6779;50.150;8.680;2022-10-20T01:28:57;9.90;39.90
13416;DHT22;6779;50.150;8.680;2022-10-20T01:31:28;9.90;38.70
13416;DHT22;6779;50.150;8.680;2022-10-20T01:36:42;9.90;97.10
13416;DHT22;6779;50.150;8.680;2022-10-20T01:39:16;10.00;67.50
13416;DHT22;6779;50.150;8.680;2022-10-20T01:41:53;9.90;38.40
13416;DHT22;6779;50.150;8.680;2022-10-20T01:44:20;9.90;61.40
13416;DHT22;6779;50.150;8.680;2022-10-20T01:46:47;9.90;42.00
13416;DHT22;6779;50.150;8.680;2022-10-20T01:49:13;9.90;31.40
13416;DHT22;6779;50.150;8.680;2022-10-20T01:51:39;9.80;41.60
13416;DHT22;6779;50.150;8.680;2022-10-20T01:54:05;9.80;78.40
13416;DHT22;6779;50.150;8.680;2022-10-20T02:00:00;9.80;60.50
13416;DHT22;6779;50.150;8.680;2022-10-20T02:08:06;9.80;42.00
13416;DHT22;6779;50.150;8.680;2022-10-20T02:10:45;9.90;1.10
13416;DHT22;6779;50.150;8.680;2022-10-20T02:13:11;9.80;1.00
13416;DHT22;6779;50.150;8.680;2022-10-20T02:15:42;9.70;1.70
13416;DHT22;6779;50.150;8.680;2022-10-20T02:18:11;9.70;53.40
13416;DHT22;6779;50.150;8.680;2022-10-20T02:20:42;9.70;11.80
13416;DHT22;6779;50.150;8.680;2022-10-20T02:23:09;9.70;13.30
13416;DHT22;6779;50.150;8.680;2022-10-20T02:25:37;9.70;17.40
13416;DHT22;6779;50.150;8.680;2022-10-20T02:28:04;9.70;33.70
13416;DHT22;6779;50.150;8.680;2022-10-20T02:30:33;9.70;18.00
13416;DHT22;6779;50.150;8.680;2022-10-20T02:33:00;9.70;98.00
13416;DHT22;6779;50.150;8.680;2022-10-20T02:35:30;9.60;53.70
13416;DHT22;6779;50.150;8.680;2022-10-20T02:37:56;9.70;12.70
13416;DHT22;6779;50.150;8.680;2022-10-20T02:40:22;9.60;1.00
13416;DHT22;6779;50.150;8.680;2022-10-20T02:42:48;9.50;13.70
13416;DHT22;6779;50.150;8.680;2022-10-20T02:45:14;9.60;40.00
13416;DHT22;6779;50.150;8.680;2022-10-20T02:47:39;9.60;37.50
13416;DHT22;6779;50.150;8.680;2022-10-20T02:50:06;9.60;45.60
13416;DHT22;6779;50.150;8.680;2022-10-20T02:52:32;9.60;12.30
13416;DHT22;6779;50.150;8.680;2022-10-20T02:54:58;9.50;1.00
13416;DHT22;6779;50.150;8.680;2022-10-20T02:57:23;9.60;1.00
13416;DHT22;6779;50.150;8.680;2022-10-20T02:59:49;9.60;1.00
13416;DHT22;6779;50.150;8.680;2022-10-20T03:02:14;9.70;1.00
13416;DHT22;6779;50.150;8.680;2022-10-20T03:04:40;9.60;1.00
13416;DHT22;6779;50.150;8.680;2022-10-20T03:07:06;9.60;44.40
13416;DHT22;6779;50.150;8.680;2022-10-20T03:09:31;9.60;1.00
13416;DHT22;6779;50.150;8.680;2022-10-20T03:11:57;9.60;9.70
13416;DHT22;6779;50.150;8.680;2022-10-20T03:14:22;9.60;1.00
13416;DHT22;6779;50.150;8.680;2022-10-20T03:16:48;9.50;1.00
13416;DHT22;6779;50.150;8.680;2022-10-20T03:19:13;9.50;1.00
13416;DHT22;6779;50.150;8.680;2022-10-20T03:21:39;9.50;1.00
13416;DHT22;6779;50.150;8.680;2022-10-20T03:24:04;9.50;1.00
13416;DHT22;6779;50.150;8.680;2022-10-20T03:26:30;9.50;4.80
13416;DHT22;6779;50.150;8.680;2022-10-20T03:28:55;9.50;1.00
13416;DHT22;6779;50.150;8.680;2022-10-20T03:31:21;9.50;13.60
13416;DHT22;6779;50.150;8.680;2022-10-20T03:33:47;9.40;30.40
13416;DHT22;6779;50.150;8.680;2022-10-20T03:36:12;9.40;31.70
13416;DHT22;6779;50.150;8.680;2022-10-20T03:38:40;9.40;47.10
13416;DHT22;6779;50.150;8.680;2022-10-20T03:41:07;9.40;7.90
13416;DHT22;6779;50.150;8.680;2022-10-20T03:43:32;9.40;17.50
13416;DHT22;6779;50.150;8.680;2022-10-20T03:46:04;9.40;1.00
13416;DHT22;6779;50.150;8.680;2022-10-20T03:48:29;9.40;1.00
13416;DHT22;6779;50.150;8.680;2022-10-20T03:50:55;9.40;1.00
13416;DHT22;6779;50.150;8.680;2022-10-20T03:53:21;9.50;1.00
13416;DHT22;6779;50.150;8.680;2022-10-20T03:55:46;9.50;1.00
13416;DHT22;6779;50.150;8.680;2022-10-20T03:58:12;9.50;1.00
13416;DHT22;6779;50.150;8.680;2022-10-20T04:00:37;9.50;1.00
13416;DHT22;6779;50.150;8.680;2022-10-20T04:03:03;9.40;1.00
13416;DHT22;6779;50.150;8.680;2022-10-20T04:05:28;9.50;1.00
13416;DHT22;6779;50.150;8.680;2022-10-20T04:07:54;9.40;1.00
13416;DHT22;6779;50.150;8.680;2022-10-20T04:10:19;9.40;27.40
13416;DHT22;6779;50.150;8.680;2022-10-20T04:12:45;9.50;8.00
13416;DHT22;6779;50.150;8.680;2022-10-20T04:15:10;9.40;1.00
13416;DHT22;6779;50.150;8.680;2022-10-20T04:17:36;9.40;1.00
13416;DHT22;6779;50.150;8.680;2022-10-20T04:20:03;9.40;1.00
13416;DHT22;6779;50.150;8.680;2022-10-20T04:22:29;9.40;52.20
13416;DHT22;6779;50.150;8.680;2022-10-20T04:24:54;9.50;1.00
13416;DHT22;6779;50.150;8.680;2022-10-20T04:27:20;9.40;1.00
13416;DHT22;6779;50.150;8.680;2022-10-20T04:29:46;9.40;1.00
13416;DHT22;6779;50.150;8.680;2022-10-20T04:32:12;9.40;1.00
13416;DHT22;6779;50.150;8.680;2022-10-20T04:34:37;9.40;1.00
13416;DHT22;6779;50.150;8.680;2022-10-20T04:37:03;9.40;1.00
13416;DHT22;6779;50.150;8.680;2022-10-20T04:39:28;9.50;1.00
13416;DHT22;6779;50.150;8.680;2022-10-20T04:41:54;9.40;1.00
13416;DHT22;6779;50.150;8.680;2022-10-20T04:44:20;9.40;1.00
13416;DHT22;6779;50.150;8.680;2022-10-20T04:46:45;9.50;1.00
13416;DHT22;6779;50.150;8.680;2022-10-20T04:49:11;9.50;1.00
13416;DHT22;6779;50.150;8.680;2022-10-20T04:51:36;9.50;1.00
13416;DHT22;6779;50.150;8.680;2022-10-20T04:54:02;9.50;1.00
13416;DHT22;6779;50.150;8.680;2022-10-20T04:56:28;9.40;1.00
13416;DHT22;6779;50.150;8.680;2022-10-20T04:58:56;9.40;1.00
13416;DHT22;6779;50.150;8.680;2022-10-20T05:01:24;9.40;1.00
13416;DHT22;6779;50.150;8.680;2022-10-20T05:03:49;9.40;1.00
13416;DHT22;6779;50.150;8.680;2022-10-20T05:06:18;9.40;1.00
13416;DHT22;6779;50.150;8.680;2022-10-20T05:08:47;9.40;1.00
13416;DHT22;6779;50.150;8.680;2022-10-20T05:11:14;9.40;1.00
13416;DHT22;6779;50.150;8.680;2022-10-20T05:13:40;9.30;1.00
13416;DHT22;6779;50.150;8.680;2022-10-20T05:16:07;9.30;1.00
13416;DHT22;6779;50.150;8.680;2022-10-20T05:18:33;9.30;1.00
13416;DHT22;6779;50.150;8.680;2022-10-20T05:21:07;9.30;1.00
13416;DHT22;6779;50.150;8.680;2022-10-20T05:23:32;9.30;28.20
13416;DHT22;6779;50.150;8.680;2022-10-20T05:26:01;9.20;1.00
13416;DHT22;6779;50.150;8.680;2022-10-20T05:28:27;9.30;2.80
13416;DHT22;6779;50.150;8.680;2022-10-20T05:30:53;9.40;17.00
13416;DHT22;6779;50.150;8.680;2022-10-20T05:33:18;9.30;1.00
13416;DHT22;6779;50.150;8.680;2022-10-20T05:35:44;9.30;1.00
13416;DHT22;6779;50.150;8.680;2022-10-20T05:38:10;9.30;1.00
13416;DHT22;6779;50.150;8.680;2022-10-20T05:40:35;9.30;1.00
13416;DHT22;6779;50.150;8.680;2022-10-20T05:43:01;9.40;1.00
13416;DHT22;6779;50.150;8.680;2022-10-20T05:45:26;9.40;1.00
13416;DHT22;6779;50.150;8.680;2022-10-20T05:47:52;9.50;1.00
13416;DHT22;6779;50.150;8.680;2022-10-20T05:50:17;9.40;1.00
13416;DHT22;6779;50.150;8.680;2022-10-20T05:52:43;9.50;1.00
13416;DHT22;6779;50.150;8.680;2022-10-20T05:55:09;9.40;1.00
13416;DHT22;6779;50.150;8.680;2022-10-20T05:57:34;9.40;1.00
13416;DHT22;6779;50.150;8.680;2022-10-20T06:00:00;9.40;1.00
13416;DHT22;6779;50.150;8.680;2022-10-20T06:02:26;9.50;1.00
13416;DHT22;6779;50.150;8.680;2022-10-20T06:04:51;9.40;1.00
13416;DHT22;6779;50.150;8.680;2022-10-20T06:07:17;9.40;1.00
13416;DHT22;6779;50.150;8.680;2022-10-20T06:09:42;9.50;1.00
13416;DHT22;6779;50.150;8.680;2022-10-20T06:12:08;9.40;1.00
13416;DHT22;6779;50.150;8.680;2022-10-20T06:14:33;9.50;1.00
13416;DHT22;6779;50.150;8.680;2022-10-20T06:16:59;9.50;1.00
13416;DHT22;6779;50.150;8.680;2022-10-20T06:19:25;9.40;1.00
13416;DHT22;6779;50.150;8.680;2022-10-20T06:21:51;9.50;1.00
13416;DHT22;6779;50.150;8.680;2022-10-20T06:24:18;9.50;1.00
13416;DHT22;6779;50.150;8.680;2022-10-20T06:26:44;9.50;1.00
13416;DHT22;6779;50.150;8.680;2022-10-20T06:29:13;9.60;1.00
13416;DHT22;6779;50.150;8.680;2022-10-20T06:31:44;9.60;1.00
13416;DHT22;6779;50.150;8.680;2022-10-20T06:34:20;9.70;1.00
13416;DHT22;6779;50.150;8.680;2022-10-20T06:36:46;9.70;1.00
13416;DHT22;6779;50.150;8.680;2022-10-20T06:39:18;9.70;1.00
13416;DHT22;6779;50.150;8.680;2022-10-20T06:41:48;9.70;1.00
13416;DHT22;6779;50.150;8.680;2022-10-20T06:44:15;9.70;1.00
13416;DHT22;6779;50.150;8.680;2022-10-20T06:46:42;9.80;1.00
13416;DHT22;6779;50.150;8.680;2022-10-20T06:49:09;9.90;1.00
13416;DHT22;6779;50.150;8.680;2022-10-20T06:51:36;9.90;1.00
13416;DHT22;6779;50.150;8.680;2022-10-20T06:54:02;9.90;1.00
13416;DHT22;6779;50.150;8.680;2022-10-20T06:56:30;9.90;1.00
13416;DHT22;6779;50.150;8.680;2022-10-20T06:58:57;9.90;1.00
13416;DHT22;6779;50.150;8.680;2022-10-20T07:01:28;10.00;1.00
13416;DHT22;6779;50.150;8.680;2022-10-20T07:03:56;10.00;1.00
13416;DHT22;6779;50.150;8.680;2022-10-20T07:06:28;10.10;1.00
13416;DHT22;6779;50.150;8.680;2022-10-20T07:08:54;10.00;99.90
13416;DHT22;6779;50.150;8.680;2022-10-20T07:11:25;10.00;99.90
13416;DHT22;6779;50.150;8.680;2022-10-20T07:13:51;10.10;1.00
13416;DHT22;6779;50.150;8.680;2022-10-20T07:16:20;10.10;1.00
13416;DHT22;6779;50.150;8.680;2022-10-20T07:18:46;10.20;1.00
13416;DHT22;6779;50.150;8.680;2022-10-20T07:21:14;10.30;1.00
13416;DHT22;6779;50.150;8.680;2022-10-20T07:23:40;10.30;1.00
13416;DHT22;6779;50.150;8.680;2022-10-20T07:26:18;10.40;1.00
13416;DHT22;6779;50.150;8.680;2022-10-20T07:28:46;10.50;1.00
13416;DHT22;6779;50.150;8.680;2022-10-20T07:31:27;10.60;99.90
13416;DHT22;6779;50.150;8.680;2022-10-20T07:33:52;10.70;99.90
13416;DHT22;6779;50.150;8.680;2022-10-20T07:36:24;10.80;99.90
13416;DHT22;6779;50.150;8.680;2022-10-20T07:38:52;10.90;99.90
13416;DHT22;6779;50.150;8.680;2022-10-20T07:41:18;11.00;99.90
13416;DHT22;6779;50.150;8.680;2022-10-20T07:43:43;11.10;1.00
13416;DHT22;6779;50.150;8.680;2022-10-20T07:46:10;11.20;32.30
13416;DHT22;6779;50.150;8.680;2022-10-20T07:48:36;11.40;1.00
13416;DHT22;6779;50.150;8.680;2022-10-20T07:53:47;11.70;1.00
13416;DHT22;6779;50.150;8.680;2022-10-20T07:56:13;11.60;99.90
13416;DHT22;6779;50.150;8.680;2022-10-20T07:58:40;11.80;99.90
13416;DHT22;6779;50.150;8.680;2022-10-20T08:01:06;11.90;99.90
13416;DHT22;6779;50.150;8.680;2022-10-20T08:03:32;11.80;99.90
13416;DHT22;6779;50.150;8.680;2022-10-20T08:05:57;11.90;78.90
13416;DHT22;6779;50.150;8.680;2022-10-20T08:08:23;12.00;1.00
13416;DHT22;6779;50.150;8.680;2022-10-20T08:10:48;12.00;1.00
13416;DHT22;6779;50.150;8.680;2022-10-20T08:13:14;12.00;99.90
13416;DHT22;6779;50.150;8.680;2022-10-20T08:15:39;11.90;1.00
13416;DHT22;6779;50.150;8.680;2022-10-20T08:18:05;12.00;99.90
13416;DHT22;6779;50.150;8.680;2022-10-20T08:20:31;11.80;99.90
13416;DHT22;6779;50.150;8.680;2022-10-20T08:22:57;11.80;99.90
13416;DHT22;6779;50.150;8.680;2022-10-20T08:25:23;11.80;1.00
13416;DHT22;6779;50.150;8.680;2022-10-20T08:27:48;11.90;40.00
13416;DHT22;6779;50.150;8.680;2022-10-20T08:30:14;12.10;1.00
13416;DHT22;6779;50.150;8.680;2022-10-20T08:32:39;12.10;1.00
13416;DHT22;6779;50.150;8.680;2022-10-20T08:35:05;12.10;99.90
13416;DHT22;6779;50.150;8.680;2022-10-20T08:37:31;11.90;99.90
13416;DHT22;6779;50.150;8.680;2022-10-20T08:39:57;12.00;78.90
13416;DHT22;6779;50.150;8.680;2022-10-20T08:42:22;11.90;99.90
13416;DHT22;6779;50.150;8.680;2022-10-20T08:44:49;12.10;99.90
13416;DHT22;6779;50.150;8.680;2022-10-20T08:47:30;12.40;99.90
13416;DHT22;6779;50.150;8.680;2022-10-20T08:49:56;12.20;99.90
13416;DHT22;6779;50.150;8.680;2022-10-20T08:52:23;12.50;56.30
13416;DHT22;6779;50.150;8.680;2022-10-20T08:54:53;12.60;99.90
13416;DHT22;6779;50.150;8.680;2022-10-20T08:57:26;12.50;1.00
13416;DHT22;6779;50.150;8.680;2022-10-20T08:59:54;12.70;1.00
13416;DHT22;6779;50.150;8.680;2022-10-20T09:02:21;12.90;99.90
13416;DHT22;6779;50.150;8.680;2022-10-20T09:04:53;12.80;99.90
13416;DHT22;6779;50.150;8.680;2022-10-20T09:07:27;13.00;99.90
13416;DHT22;6779;50.150;8.680;2022-10-20T09:10:08;13.00;99.90
13416;DHT22;6779;50.150;8.680;2022-10-20T09:12:38;12.80;18.40
13416;DHT22;6779;50.150;8.680;2022-10-20T09:15:04;12.70;99.90
13416;DHT22;6779;50.150;8.680;2022-10-20T09:17:30;12.60;1.00
13416;DHT22;6779;50.150;8.680;2022-10-20T09:19:58;12.50;99.90
13416;DHT22;6779;50.150;8.680;2022-10-20T09:22:26;12.50;99.90
13416;DHT22;6779;50.150;8.680;2022-10-20T09:24:56;12.60;1.00
13416;DHT22;6779;50.150;8.680;2022-10-20T09:27:31;12.60;1.00
13416;DHT22;6779;50.150;8.680;2022-10-20T09:29:57;12.60;1.00
13416;DHT22;6779;50.150;8.680;2022-10-20T09:37:39;12.60;99.90
13416;DHT22;6779;50.150;8.680;2022-10-20T09:40:13;12.70;1.00
13416;DHT22;6779;50.150;8.680;2022-10-20T09:42:43;13.00;1.00
13416;DHT22;6779;50.150;8.680;2022-10-20T09:45:19;13.10;99.90
13416;DHT22;6779;50.150;8.680;2022-10-20T09:47:52;13.20;99.90
13416;DHT22;6779;50.150;8.680;2022-10-20T09:50:34;13.20;1.00
13416;DHT22;6779;50.150;8.680;2022-10-20T09:53:03;13.10;99.90
13416;DHT22;6779;50.150;8.680;2022-10-20T09:55:38;13.00;37.40
13416;DHT22;6779;50.150;8.680;2022-10-20T09:58:22;13.10;99.90
13416;DHT22;6779;50.150;8.680;2022-10-20T10:03:26;12.90;99.90
13416;DHT22;6779;50.150;8.680;2022-10-20T10:05:56;13.00;99.90
13416;DHT22;6779;50.150;8.680;2022-10-20T10:08:25;13.00;99.90
13416;DHT22;6779;50.150;8.680;2022-10-20T10:11:04;12.70;90.20
13416;DHT22;6779;50.150;8.680;2022-10-20T10:13:38;12.70;43.20
13416;DHT22;6779;50.150;8.680;2022-10-20T10:16:07;12.80;97.70
13416;DHT22;6779;50.150;8.680;2022-10-20T10:18:34;12.90;99.90
13416;DHT22;6779;50.150;8.680;2022-10-20T10:21:09;12.90;1.00
13416;DHT22;6779;50.150;8.680;2022-10-20T10:23:48;12.90;1.00
13416;DHT22;6779;50.150;8.680;2022-10-20T10:28:58;12.90;99.90
13416;DHT22;6779;50.150;8.680;2022-10-20T10:31:24;12.90;99.90
13416;DHT22;6779;50.150;8.680;2022-10-20T10:36:38;12.90;99.90
13416;DHT22;6779;50.150;8.680;2022-10-20T10:39:05;12.90;99.90
13416;DHT22;6779;50.150;8.680;2022-10-20T10:41:55;13.00;99.90
13416;DHT22;6779;50.150;8.680;2022-10-20T10:55:45;13.20;99.90
13416;DHT22;6779;50.150;8.680;2022-10-20T11:02:01;13.30;99.90
13416;DHT22;6779;50.150;8.680;2022-10-20T11:04:50;13.30;5.00
13416;DHT22;6779;50.150;8.680;2022-10-20T11:07:41;13.20;14.70
13416;DHT22;6779;50.150;8.680;2022-10-20T11:10:45;13.10;1.00
13416;DHT22;6779;50.150;8.680;2022-10-20T11:13:24;13.10;1.00
13416;DHT22;6779;50.150;8.680;2022-10-20T11:16:05;13.00;99.90
13416;DHT22;6779;50.150;8.680;2022-10-20T11:21:42;13.10;1.00
13416;DHT22;6779;50.150;8.680;2022-10-20T11:26:40;13.60;99.90
13416;DHT22;6779;50.150;8.680;2022-10-20T11:29:25;13.70;1.00
13416;DHT22;6779;50.150;8.680;2022-10-20T11:34:51;14.50;1.00
13416;DHT22;6779;50.150;8.680;2022-10-20T11:37:21;14.60;66.50
13416;DHT22;6779;50.150;8.680;2022-10-20T11:39:56;14.20;99.90
13416;DHT22;6779;50.150;8.680;2022-10-20T11:42:53;13.80;99.90
13416;DHT22;6779;50.150;8.680;2022-10-20T11:47:51;14.00;1.00
13416;DHT22;6779;50.150;8.680;2022-10-20T11:50:20;13.90;1.00
13416;DHT22;6779;50.150;8.680;2022-10-20T11:53:14;13.90;1.00
13416;DHT22;6779;50.150;8.680;2022-10-20T11:56:16;14.00;29.30
13416;DHT22;6779;50.150;8.680;2022-10-20T12:01:23;13.90;93.90
13416;DHT22;6779;50.150;8.680;2022-10-20T12:09:51;13.80;99.90
13416;DHT22;6779;50.150;8.680;2022-10-20T12:15:22;13.80;1.00
13416;DHT22;6779;50.150;8.680;2022-10-20T12:17:50;13.80;99.90
13416;DHT22;6779;50.150;8.680;2022-10-20T12:22:49;13.50;99.90
13416;DHT22;6779;50.150;8.680;2022-10-20T12:30:53;13.60;1.00
13416;DHT22;6779;50.150;8.680;2022-10-20T12:33:37;13.70;99.90
13416;DHT22;6779;50.150;8.680;2022-10-20T12:36:35;13.70;99.90
13416;DHT22;6779;50.150;8.680;2022-10-20T12:41:42;13.60;99.90
13416;DHT22;6779;50.150;8.680;2022-10-20T12:44:15;13.60;99.90
13416;DHT22;6779;50.150;8.680;2022-10-20T12:46:50;13.60;99.90
13416;DHT22;6779;50.150;8.680;2022-10-20T12:49:37;13.60;1.00
13416;DHT22;6779;50.150;8.680;2022-10-20T12:52:06;13.60;99.90
13416;DHT22;6779;50.150;8.680;2022-10-20T12:54:38;13.70;99.90
13416;DHT22;6779;50.150;8.680;2022-10-20T12:57:34;13.70;22.50
13416;DHT22;6779;50.150;8.680;2022-10-20T13:00:04;13.70;1.00
13416;DHT22;6779;50.150;8.680;2022-10-20T13:02:45;13.70;1.00
13416;DHT22;6779;50.150;8.680;2022-10-20T13:15:33;13.60;1.80
13416;DHT22;6779;50.150;8.680;2022-10-20T13:20:55;13.70;1.00
13416;DHT22;6779;50.150;8.680;2022-10-20T13:23:42;13.70;1.00
13416;DHT22;6779;50.150;8.680;2022-10-20T13:26:35;13.70;1.00
13416;DHT22;6779;50.150;8.680;2022-10-20T13:29:14;13.70;99.90
13416;DHT22;6779;50.150;8.680;2022-10-20T13:31:52;13.80;99.90
13416;DHT22;6779;50.150;8.680;2022-10-20T13:37:33;13.80;99.90
13416;DHT22;6779;50.150;8.680;2022-10-20T13:42:40;13.90;99.90
13416;DHT22;6779;50.150;8.680;2022-10-20T13:45:13;13.90;99.90
13416;DHT22;6779;50.150;8.680;2022-10-20T13:50:27;14.00;1.00
13416;DHT22;6779;50.150;8.680;2022-10-20T13:52:58;13.90;1.00
13416;DHT22;6779;50.150;8.680;2022-10-20T13:55:29;13.90;28.90
13416;DHT22;6779;50.150;8.680;2022-10-20T13:58:13;13.90;99.90
13416;DHT22;6779;50.150;8.680;2022-10-20T14:00:55;13.80;1.00
13416;DHT22;6779;50.150;8.680;2022-10-20T14:03:20;13.90;99.90
13416;DHT22;6779;50.150;8.680;2022-10-20T14:05:46;13.90;99.90
13416;DHT22;6779;50.150;8.680;2022-10-20T14:08:14;13.80;99.90
13416;DHT22;6779;50.150;8.680;2022-10-20T14:10:57;13.80;99.90
13416;DHT22;6779;50.150;8.680;2022-10-20T14:13:26;13.80;1.00
13416;DHT22;6779;50.150;8.680;2022-10-20T14:15:55;13.90;99.90
13416;DHT22;6779;50.150;8.680;2022-10-20T14:18:30;14.00;99.90
13416;DHT22;6779;50.150;8.680;2022-10-20T14:21:14;14.10;89.60
13416;DHT22;6779;50.150;8.680;2022-10-20T14:23:42;13.90;99.90
13416;DHT22;6779;50.150;8.680;2022-10-20T14:26:13;13.90;99.90
13416;DHT22;6779;50.150;8.680;2022-10-20T14:28:40;13.80;99.90
13416;DHT22;6779;50.150;8.680;2022-10-20T14:31:07;13.70;1.00
13416;DHT22;6779;50.150;8.680;2022-10-20T14:33:38;13.70;1.00
13416;DHT22;6779;50.150;8.680;2022-10-20T14:36:04;13.80;1.00
13416;DHT22;6779;50.150;8.680;2022-10-20T14:38:34;13.80;1.00
13416;DHT22;6779;50.150;8.680;2022-10-20T14:41:05;13.80;1.00
13416;DHT22;6779;50.150;8.680;2022-10-20T14:43:42;13.70;1.00
13416;DHT22;6779;50.150;8.680;2022-10-20T14:46:11;13.70;1.00
13416;DHT22;6779;50.150;8.680;2022-10-20T14:48:45;13.60;38.30
13416;DHT22;6779;50.150;8.680;2022-10-20T14:51:38;13.60;27.30
13416;DHT22;6779;50.150;8.680;2022-10-20T14:56:46;13.60;99.90
13416;DHT22;6779;50.150;8.680;2022-10-20T14:59:14;13.50;99.90
13416;DHT22;6779;50.150;8.680;2022-10-20T15:01:40;13.50;99.90
13416;DHT22;6779;50.150;8.680;2022-10-20T15:04:23;13.50;99.90
13416;DHT22;6779;50.150;8.680;2022-10-20T15:06:49;13.40;99.90
13416;DHT22;6779;50.150;8.680;2022-10-20T15:09:24;13.40;99.90
13416;DHT22;6779;50.150;8.680;2022-10-20T15:11:51;13.40;99.90
13416;DHT22;6779;50.150;8.680;2022-10-20T15:14:17;13.40;99.90
13416;DHT22;6779;50.150;8.680;2022-10-20T15:16:45;13.30;99.90
13416;DHT22;6779;50.150;8.680;2022-10-20T15:19:29;13.30;99.90
13416;DHT22;6779;50.150;8.680;2022-10-20T15:21:58;13.30;99.90
13416;DHT22;6779;50.150;8.680;2022-10-20T15:24:25;13.30;99.90
13416;DHT22;6779;50.150;8.680;2022-10-20T15:26:50;13.30;99.90
13416;DHT22;6779;50.150;8.680;2022-10-20T15:29:16;13.30;99.90
13416;DHT22;6779;50.150;8.680;2022-10-20T15:31:42;13.30;99.90
13416;DHT22;6779;50.150;8.680;2022-10-20T15:34:08;13.30;99.90
13416;DHT22;6779;50.150;8.680;2022-10-20T15:36:34;13.30;99.90
13416;DHT22;6779;50.150;8.680;2022-10-20T15:39:02;13.30;99.90
13416;DHT22;6779;50.150;8.680;2022-10-20T15:41:30;13.30;99.90
13416;DHT22;6779;50.150;8.680;2022-10-20T15:44:11;13.30;99.90
13416;DHT22;6779;50.150;8.680;2022-10-20T15:46:37;13.30;99.90
13416;DHT22;6779;50.150;8.680;2022-10-20T15:49:03;13.30;99.90
13416;DHT22;6779;50.150;8.680;2022-10-20T15:51:30;13.20;99.90
13416;DHT22;6779;50.150;8.680;2022-10-20T15:53:57;13.20;99.90
13416;DHT22;6779;50.150;8.680;2022-10-20T15:56:23;13.20;99.90
13416;DHT22;6779;50.150;8.680;2022-10-20T15:58:49;13.20;99.90
13416;DHT22;6779;50.150;8.680;2022-10-20T16:01:15;13.20;99.90
13416;DHT22;6779;50.150;8.680;2022-10-20T16:03:41;13.20;99.90
13416;DHT22;6779;50.150;8.680;2022-10-20T16:06:08;13.20;99.90
13416;DHT22;6779;50.150;8.680;2022-10-20T16:08:34;13.20;99.90
13416;DHT22;6779;50.150;8.680;2022-10-20T16:11:02;13.20;99.90
13416;DHT22;6779;50.150;8.680;2022-10-20T16:13:28;13.20;99.90
13416;DHT22;6779;50.150;8.680;2022-10-20T16:15:53;13.10;99.90
13416;DHT22;6779;50.150;8.680;2022-10-20T16:18:19;13.10;99.90
13416;DHT22;6779;50.150;8.680;2022-10-20T16:20:45;13.10;99.90
13416;DHT22;6779;50.150;8.680;2022-10-20T16:23:10;13.10;99.90
13416;DHT22;6779;50.150;8.680;2022-10-20T16:25:39;13.10;99.90
13416;DHT22;6779;50.150;8.680;2022-10-20T16:28:05;13.10;99.90
13416;DHT22;6779;50.150;8.680;2022-10-20T16:30:30;13.10;99.90
13416;DHT22;6779;50.150;8.680;2022-10-20T16:32:56;13.10;99.90
13416;DHT22;6779;50.150;8.680;2022-10-20T16:35:21;13.10;99.90
13416;DHT22;6779;50.150;8.680;2022-10-20T16:37:47;13.10;99.90
13416;DHT22;6779;50.150;8.680;2022-10-20T16:40:13;13.00;99.90
13416;DHT22;6779;50.150;8.680;2022-10-20T16:42:38;13.00;99.90
13416;DHT22;6779;50.150;8.680;2022-10-20T16:45:04;12.90;99.90
13416;DHT22;6779;50.150;8.680;2022-10-20T16:47:30;12.90;99.90
13416;DHT22;6779;50.150;8.680;2022-10-20T16:49:56;12.90;99.90
13416;DHT22;6779;50.150;8.680;2022-10-20T16:52:22;12.90;99.90
13416;DHT22;6779;50.150;8.680;2022-10-20T16:54:48;12.90;99.90
13416;DHT22;6779;50.150;8.680;2022-10-20T16:57:13;13.00;99.90
13416;DHT22;6779;50.150;8.680;2022-10-20T16:59:39;12.90;99.90
13416;DHT22;6779;50.150;8.680;2022-10-20T17:02:06;12.90;99.90
13416;DHT22;6779;50.150;8.680;2022-10-20T17:04:32;12.90;99.90
13416;DHT22;6779;50.150;8.680;2022-10-20T17:06:57;12.90;99.90
13416;DHT22;6779;50.150;8.680;2022-10-20T17:09:23;12.90;99.90
13416;DHT22;6779;50.150;8.680;2022-10-20T17:11:49;13.00;99.90
13416;DHT22;6779;50.150;8.680;2022-10-20T17:14:15;13.00;99.90
13416;DHT22;6779;50.150;8.680;2022-10-20T17:16:41;13.00;99.90
13416;DHT22;6779;50.150;8.680;2022-10-20T17:19:07;13.00;99.90
13416;DHT22;6779;50.150;8.680;2022-10-20T17:21:33;13.00;99.90
13416;DHT22;6779;50.150;8.680;2022-10-20T17:23:59;13.00;99.90
13416;DHT22;6779;50.150;8.680;2022-10-20T17:26:26;13.00;99.90
13416;DHT22;6779;50.150;8.680;2022-10-20T17:28:56;12.90;99.90
13416;DHT22;6779;50.150;8.680;2022-10-20T17:31:21;12.90;99.90
13416;DHT22;6779;50.150;8.680;2022-10-20T17:33:47;12.90;99.90
13416;DHT22;6779;50.150;8.680;2022-10-20T17:36:13;12.90;99.90
13416;DHT22;6779;50.150;8.680;2022-10-20T17:38:42;12.80;99.90
13416;DHT22;6779;50.150;8.680;2022-10-20T17:41:11;12.90;99.90
13416;DHT22;6779;50.150;8.680;2022-10-20T17:43:37;12.90;99.90
13416;DHT22;6779;50.150;8.680;2022-10-20T17:46:11;12.90;99.90
13416;DHT22;6779;50.150;8.680;2022-10-20T17:48:37;12.90;99.90
13416;DHT22;6779;50.150;8.680;2022-10-20T17:51:13;12.90;99.90
13416;DHT22;6779;50.150;8.680;2022-10-20T17:53:41;12.90;99.90
13416;DHT22;6779;50.150;8.680;2022-10-20T17:56:19;12.90;99.90
13416;DHT22;6779;50.150;8.680;2022-10-20T17:58:46;13.00;99.90
13416;DHT22;6779;50.150;8.680;2022-10-20T18:03:54;13.10;99.90